Time;durP1;ratioP1;P1;durP2;ratioP2;P2;SDS_P1;SDS_P2;PMS_P1;PMS_P2;Temp;Humidity;BMP_temperature;BMP_pressure;BME280_temperature;BME280_humidity;BME280_pressure;Samples;Min_cycle;Max_cycle;Signal;HPM_P1;HPM_P2
2023/02/21 02:16:31;;;;;;;0.47;0.47;;;9.80;99.90;;;;;;5030341;28;20109;-81
2023/02/21 02:18:57;;;;;;;0.32;0.32;;;9.70;99.90;;;;;;5043083;28;20048;-81
2023/02/21 02:21:41;;;;;;;0.45;0.45;;;9.70;99.90;;;;;;5045459;28;20044;-82
2023/02/21 02:24:28;;;;;;;0.50;0.50;;;9.70;99.90;;;;;;5038926;28;20098;-81
2023/02/21 02:27:25;;;;;;;0.70;0.70;;;9.80;99.90;;;;;;5035794;28;20049;-81
2023/02/21 02:30:30;;;;;;;1.40;1.40;;;9.70;99.90;;;;;;5047760;28;20045;-80
2023/02/21 02:33:43;;;;;;;0.60;0.60;;;9.70;99.90;;;;;;5042707;28;20127;-81
2023/02/21 02:36:22;;;;;;;0.50;0.50;;;9.80;99.90;;;;;;4972691;28;20108;-81
2023/02/21 02:38:54;;;;;;;1.60;1.17;;;9.90;99.90;;;;;;5042847;28;20049;-81
2023/02/21 02:41:37;;;;;;;2.58;2.40;;;9.70;99.90;;;;;;5042972;28;20079;-81
2023/02/21 02:44:28;;;;;;;1.17;0.85;;;9.80;99.90;;;;;;5040441;28;20462;-81
2023/02/21 02:46:58;;;;;;;0.52;0.52;;;9.70;99.90;;;;;;5036431;28;20041;-81
2023/02/21 02:49:27;;;;;;;0.85;0.85;;;9.80;99.90;;;;;;5029904;28;20544;-82
2023/02/21 02:51:53;;;;;;;0.40;0.40;;;9.80;99.90;;;;;;5042830;28;20045;-80
2023/02/21 02:54:19;;;;;;;0.90;0.90;;;9.80;99.90;;;;;;5036650;28;20367;-81
2023/02/21 02:56:45;;;;;;;0.90;0.90;;;9.80;99.90;;;;;;5041098;28;20169;-82
2023/02/21 02:59:13;;;;;;;;;;;9.80;99.90;;;;;;5013717;28;20033;-81
2023/02/21 03:01:48;;;;;;;0.63;0.63;;;9.80;99.90;;;;;;5045144;28;20298;-82
2023/02/21 03:04:41;;;;;;;0.88;0.88;;;9.70;99.90;;;;;;5020376;28;20084;-81
2023/02/21 03:07:24;;;;;;;1.17;1.08;;;9.80;99.90;;;;;;5037588;28;20095;-81
2023/02/21 03:10:06;;;;;;;0.77;0.77;;;9.80;99.90;;;;;;5048013;28;20044;-81
2023/02/21 03:12:40;;;;;;;3.03;2.38;;;9.70;99.90;;;;;;5040149;28;20881;-80
2023/02/21 03:15:19;;;;;;;1.05;1.05;;;9.80;99.90;;;;;;5037777;28;20042;-79
2023/02/21 03:17:54;;;;;;;0.60;0.60;;;9.80;99.90;;;;;;5036707;28;20048;-80
2023/02/21 03:20:20;;;;;;;1.67;1.27;;;9.70;99.90;;;;;;5046680;28;20514;-81
2023/02/21 03:22:48;;;;;;;0.60;0.60;;;9.70;99.90;;;;;;5023320;28;20134;-80
2023/02/21 03:25:15;;;;;;;1.05;1.05;;;9.70;99.90;;;;;;5039036;28;20068;-81
2023/02/21 03:27:43;;;;;;;4.00;1.00;;;9.60;99.90;;;;;;5044054;28;20086;-81
2023/02/21 03:30:10;;;;;;;1.48;1.05;;;9.60;99.90;;;;;;5038675;28;20305;-80
2023/02/21 03:32:39;;;;;;;0.60;0.60;;;9.70;99.90;;;;;;5021410;28;20102;-80
2023/02/21 03:35:05;;;;;;;0.50;0.50;;;9.70;99.90;;;;;;5035967;28;20136;-81
2023/02/21 03:37:35;;;;;;;;;;;9.60;99.90;;;;;;5040171;28;20041;-80
2023/02/21 03:40:04;;;;;;;0.40;0.40;;;9.60;99.90;;;;;;5043409;28;20010;-81
2023/02/21 03:42:29;;;;;;;0.80;0.80;;;9.50;99.90;;;;;;5036719;28;20041;-81
2023/02/21 03:44:55;;;;;;;0.70;0.70;;;9.60;99.90;;;;;;5037296;28;20502;-81
2023/02/21 03:47:21;;;;;;;0.50;0.50;;;9.60;99.90;;;;;;5043711;28;20407;-81
2023/02/21 03:49:46;;;;;;;3.42;3.13;;;9.70;99.90;;;;;;5035056;28;20403;-81
2023/02/21 03:52:12;;;;;;;1.58;1.48;;;9.60;99.90;;;;;;5036558;28;20038;-82
2023/02/21 03:54:39;;;;;;;0.40;0.40;;;9.60;99.90;;;;;;5038445;28;20071;-81
2023/02/21 03:57:04;;;;;;;4.82;1.10;;;9.60;99.90;;;;;;5050058;28;20037;-81
2023/02/21 03:59:30;;;;;;;0.70;0.70;;;9.50;99.90;;;;;;5041802;28;20497;-80
2023/02/21 04:01:56;;;;;;;0.50;0.50;;;9.60;99.90;;;;;;5036473;28;20045;-81
2023/02/21 04:04:22;;;;;;;1.45;1.38;;;9.70;99.90;;;;;;5035658;28;20049;-80
2023/02/21 04:06:47;;;;;;;0.70;0.70;;;9.60;99.90;;;;;;5030740;28;20065;-81
2023/02/21 04:09:13;;;;;;;5.25;2.60;;;9.80;99.90;;;;;;5031594;28;20045;-81
2023/02/21 04:11:45;;;;;;;1.10;1.00;;;9.60;99.90;;;;;;5035854;28;20037;-81
2023/02/21 04:14:11;;;;;;;1.10;1.00;;;9.50;99.90;;;;;;5038011;28;20057;-80
2023/02/21 04:16:37;;;;;;;0.52;0.52;;;9.60;99.90;;;;;;5039799;28;20052;-80
2023/02/21 04:19:03;;;;;;;0.50;0.50;;;9.60;99.90;;;;;;5039241;28;20487;-81
2023/02/21 04:21:28;;;;;;;2.22;1.42;;;9.50;99.90;;;;;;5033243;28;20048;-81
2023/02/21 04:23:55;;;;;;;2.00;1.90;;;9.60;99.90;;;;;;5045487;28;20045;-79
2023/02/21 04:26:22;;;;;;;0.73;0.73;;;9.60;99.90;;;;;;5030382;28;20041;-80
2023/02/21 04:28:49;;;;;;;0.60;0.60;;;9.60;99.90;;;;;;5035501;28;20073;-82
2023/02/21 04:31:16;;;;;;;1.20;1.20;;;9.50;99.90;;;;;;5032412;28;20045;-81
2023/02/21 04:33:43;;;;;;;1.13;0.82;;;9.70;99.90;;;;;;5045556;28;20151;-80
2023/02/21 04:36:08;;;;;;;1.23;1.20;;;9.50;99.90;;;;;;5036514;28;20443;-80
2023/02/21 04:38:36;;;;;;;0.50;0.50;;;9.80;99.90;;;;;;5030247;28;20179;-81
2023/02/21 04:41:02;;;;;;;0.75;0.73;;;9.60;99.90;;;;;;5038427;28;20054;-81
2023/02/21 04:43:28;;;;;;;0.75;0.75;;;9.60;99.90;;;;;;5038111;28;20226;-80
2023/02/21 04:45:54;;;;;;;2.22;2.13;;;9.80;99.90;;;;;;5024423;28;20151;-80
2023/02/21 04:48:20;;;;;;;0.70;0.70;;;9.60;99.90;;;;;;5028052;28;20045;-80
2023/02/21 04:50:45;;;;;;;0.47;0.47;;;9.50;99.90;;;;;;5040573;28;20033;-81
2023/02/21 04:53:11;;;;;;;0.77;0.77;;;9.50;99.90;;;;;;5030293;28;20056;-82
2023/02/21 04:55:37;;;;;;;0.90;0.90;;;9.50;99.90;;;;;;5039160;28;20124;-81
2023/02/21 04:58:03;;;;;;;2.33;1.00;;;9.60;99.90;;;;;;5050855;28;20048;-79
2023/02/21 05:00:29;;;;;;;0.70;0.70;;;9.60;99.90;;;;;;5038349;28;20171;-79
2023/02/21 05:02:54;;;;;;;1.30;1.25;;;9.50;99.90;;;;;;5038572;28;20044;-80
2023/02/21 05:05:20;;;;;;;0.70;0.70;;;9.40;99.90;;;;;;5047414;28;20064;-80
2023/02/21 05:07:45;;;;;;;0.75;0.75;;;9.40;99.90;;;;;;5011491;28;20044;-79
2023/02/21 05:10:11;;;;;;;0.85;0.85;;;9.50;99.90;;;;;;5054255;28;20143;-79
2023/02/21 05:12:38;;;;;;;1.40;1.17;;;9.50;99.90;;;;;;5016035;28;20080;-79
2023/02/21 05:15:05;;;;;;;0.70;0.70;;;9.50;99.90;;;;;;5039973;28;20057;-79
2023/02/21 05:17:31;;;;;;;0.65;0.65;;;9.40;99.90;;;;;;5045532;28;20127;-79
2023/02/21 05:19:57;;;;;;;2.03;1.92;;;9.40;99.90;;;;;;5037585;28;20100;-79
2023/02/21 05:22:23;;;;;;;1.00;0.77;;;9.30;99.90;;;;;;5046445;28;20053;-79
2023/02/21 05:24:49;;;;;;;8.50;3.65;;;9.40;99.90;;;;;;5043315;28;20122;-81
2023/02/21 05:27:17;;;;;;;0.90;0.90;;;9.40;99.90;;;;;;5049149;28;20068;-80
2023/02/21 05:29:51;;;;;;;0.80;0.80;;;9.30;99.90;;;;;;5034607;28;20049;-79
2023/02/21 05:32:19;;;;;;;2.50;1.13;;;9.30;99.90;;;;;;5044859;28;20490;-79
2023/02/21 05:34:46;;;;;;;1.42;1.08;;;9.50;99.90;;;;;;5032160;28;20539;-79
2023/02/21 05:37:19;;;;;;;0.75;0.75;;;9.40;99.90;;;;;;5028253;28;20403;-80
2023/02/21 05:39:45;;;;;;;1.13;1.05;;;9.30;99.90;;;;;;5045581;28;20048;-80
2023/02/21 05:42:11;;;;;;;1.23;1.20;;;9.40;99.90;;;;;;5039029;28;20037;-80
2023/02/21 05:44:37;;;;;;;0.95;0.95;;;9.30;99.90;;;;;;5035403;28;20068;-80
2023/02/21 05:47:03;;;;;;;0.60;0.60;;;9.40;99.90;;;;;;5036732;28;20060;-80
2023/02/21 05:49:29;;;;;;;2.15;2.05;;;9.30;99.90;;;;;;5042429;28;20533;-80
2023/02/21 05:51:54;;;;;;;0.75;0.70;;;9.70;99.90;;;;;;5035427;28;20057;-80
2023/02/21 05:54:21;;;;;;;0.93;0.93;;;9.40;99.90;;;;;;5043141;28;20071;-80
2023/02/21 05:56:49;;;;;;;2.03;1.92;;;9.30;99.90;;;;;;5048500;28;20045;-80
2023/02/21 05:59:17;;;;;;;1.15;1.05;;;9.30;99.90;;;;;;5034549;28;20498;-80
2023/02/21 06:01:43;;;;;;;0.88;0.88;;;9.40;99.90;;;;;;5035880;28;20049;-80
2023/02/21 06:04:09;;;;;;;0.80;0.80;;;9.40;99.90;;;;;;5044620;28;20041;-80
2023/02/21 06:06:36;;;;;;;1.05;1.05;;;9.40;99.90;;;;;;5041964;28;20573;-80
2023/02/21 06:09:03;;;;;;;1.13;1.13;;;9.30;99.90;;;;;;5040087;28;20053;-80
2023/02/21 06:11:32;;;;;;;0.82;0.70;;;9.30;99.90;;;;;;5045910;28;20152;-80
2023/02/21 06:14:00;;;;;;;1.52;1.42;;;9.30;99.90;;;;;;5041211;28;20438;-80
2023/02/21 06:16:27;;;;;;;1.15;1.15;;;9.60;99.90;;;;;;5042917;28;20057;-81
2023/02/21 06:18:55;;;;;;;2.65;2.40;;;9.20;99.90;;;;;;5048920;28;20398;-82
2023/02/21 06:21:22;;;;;;;0.90;0.50;;;9.30;99.90;;;;;;5048448;28;20866;-82
2023/02/21 06:23:47;;;;;;;;;;;9.30;99.90;;;;;;5035418;28;20049;-81
2023/02/21 06:26:14;;;;;;;4.65;2.55;;;9.30;99.90;;;;;;5037848;28;19967;-81
2023/02/21 06:28:40;;;;;;;1.08;1.08;;;9.20;99.90;;;;;;5042314;28;20426;-81
2023/02/21 06:31:06;;;;;;;0.30;0.30;;;8.50;99.90;;;;;;5027485;28;20037;-81
2023/02/21 06:33:32;;;;;;;1.00;0.70;;;9.20;99.90;;;;;;5018016;28;20045;-81
2023/02/21 06:35:57;;;;;;;0.68;0.68;;;9.30;99.90;;;;;;5030322;28;20043;-81
2023/02/21 06:38:23;;;;;;;0.73;0.73;;;9.30;99.90;;;;;;5031981;28;20056;-81
2023/02/21 06:40:49;;;;;;;1.40;1.40;;;9.20;99.90;;;;;;5031860;28;20085;-81
2023/02/21 06:43:15;;;;;;;0.68;0.68;;;9.20;99.90;;;;;;5036532;28;20049;-81
2023/02/21 06:45:40;;;;;;;0.90;0.90;;;9.30;99.90;;;;;;5037326;28;20048;-81
2023/02/21 06:48:07;;;;;;;0.38;0.38;;;9.00;99.90;;;;;;5034991;28;20049;-81
2023/02/21 06:50:33;;;;;;;0.80;0.80;;;9.10;99.90;;;;;;5043343;28;20045;-81
2023/02/21 06:52:59;;;;;;;0.50;0.50;;;9.20;99.90;;;;;;5039455;28;20501;-81
2023/02/21 06:55:25;;;;;;;;;;;9.20;99.90;;;;;;5034255;28;20438;-82
2023/02/21 06:57:50;;;;;;;0.65;0.65;;;9.20;99.90;;;;;;5062506;28;19923;-81
2023/02/21 07:00:16;;;;;;;6.07;5.00;;;9.30;99.90;;;;;;5018881;28;20087;-82
2023/02/21 07:02:43;;;;;;;;;;;9.10;99.90;;;;;;5026656;28;20045;-82
2023/02/21 07:05:10;;;;;;;0.77;0.77;;;9.10;99.90;;;;;;5040200;28;20459;-82
2023/02/21 07:07:36;;;;;;;1.33;1.23;;;9.20;99.90;;;;;;5044953;28;20559;-82
2023/02/21 07:10:02;;;;;;;;;;;9.10;99.90;;;;;;5045146;28;20120;-83
2023/02/21 07:12:28;;;;;;;0.50;0.50;;;9.30;99.90;;;;;;5041508;28;20057;-82
2023/02/21 07:14:54;;;;;;;1.75;1.65;;;9.30;99.90;;;;;;5036623;28;20448;-82
2023/02/21 07:17:20;;;;;;;0.52;0.52;;;9.10;99.90;;;;;;5028643;28;20045;-85
2023/02/21 07:19:46;;;;;;;11.60;5.50;;;9.20;99.90;;;;;;5042934;28;20049;-81
2023/02/21 07:22:11;;;;;;;1.85;1.25;;;9.10;99.90;;;;;;5043874;28;20416;-83
2023/02/21 07:24:40;;;;;;;1.83;1.27;;;9.10;99.90;;;;;;5046924;28;20049;-81
2023/02/21 07:27:06;;;;;;;0.90;0.90;;;9.30;99.90;;;;;;5006169;28;20729;-83
2023/02/21 07:29:32;;;;;;;0.75;0.75;;;9.20;99.90;;;;;;5045212;28;20513;-86
2023/02/21 07:31:57;;;;;;;1.38;1.00;;;9.30;99.90;;;;;;5046933;28;20059;-83
2023/02/21 07:34:23;;;;;;;1.83;1.73;;;9.20;99.90;;;;;;5020895;28;20085;-82
2023/02/21 07:36:49;;;;;;;0.90;0.90;;;9.20;99.90;;;;;;5044381;28;20037;-82
2023/02/21 07:39:15;;;;;;;1.33;0.70;;;9.20;99.90;;;;;;5048371;28;20120;-85
2023/02/21 07:41:40;;;;;;;0.93;0.93;;;9.20;99.90;;;;;;5033755;28;20598;-87
2023/02/21 07:44:07;;;;;;;0.60;0.60;;;9.50;99.90;;;;;;5044480;28;20039;-83
2023/02/21 07:46:33;;;;;;;0.50;0.50;;;9.30;99.90;;;;;;5062242;28;20124;-82
2023/02/21 07:48:59;;;;;;;1.83;1.73;;;9.20;99.90;;;;;;5024249;28;20060;-83
2023/02/21 07:51:29;;;;;;;1.75;0.82;;;9.20;99.90;;;;;;5041092;28;20185;-83
2023/02/21 07:53:55;;;;;;;1.80;1.70;;;9.30;99.90;;;;;;5033031;28;20044;-83
2023/02/21 07:56:22;;;;;;;1.73;1.63;;;9.60;99.90;;;;;;5043545;28;20489;-87
2023/02/21 07:58:47;;;;;;;1.02;1.02;;;9.20;99.90;;;;;;5045991;28;20139;-82
2023/02/21 08:01:13;;;;;;;2.22;2.13;;;9.30;99.90;;;;;;5041931;28;20577;-84
2023/02/21 08:03:39;;;;;;;0.70;0.70;;;9.20;99.90;;;;;;5038639;28;20037;-84
2023/02/21 08:06:06;;;;;;;3.88;2.83;;;9.60;99.90;;;;;;5048872;28;20048;-84
2023/02/21 08:08:32;;;;;;;2.67;2.45;;;9.40;99.90;;;;;;5048349;28;20051;-84
2023/02/21 08:10:59;;;;;;;0.60;0.60;;;9.30;99.90;;;;;;5025755;28;22080;-87
2023/02/21 08:13:24;;;;;;;0.88;0.88;;;9.30;99.90;;;;;;5023090;28;20119;-81
2023/02/21 08:15:50;;;;;;;2.17;1.30;;;9.30;99.90;;;;;;5044535;28;20053;-81
2023/02/21 08:18:19;;;;;;;0.70;0.70;;;9.50;99.90;;;;;;5040273;28;20100;-82
2023/02/21 08:20:45;;;;;;;1.02;1.02;;;9.50;99.90;;;;;;5048404;28;20052;-82
2023/02/21 08:23:11;;;;;;;0.70;0.70;;;9.40;99.90;;;;;;5046259;28;20052;-80
2023/02/21 08:25:37;;;;;;;0.90;0.90;;;9.40;99.90;;;;;;5028161;28;20484;-82
2023/02/21 08:28:06;;;;;;;2.00;1.90;;;9.40;99.90;;;;;;5050930;28;20045;-81
2023/02/21 08:30:32;;;;;;;1.10;1.10;;;9.50;99.90;;;;;;5031867;28;20051;-82
2023/02/21 08:32:57;;;;;;;0.77;0.77;;;9.50;99.90;;;;;;5012369;28;20067;-81
2023/02/21 08:35:23;;;;;;;3.38;2.03;;;9.60;99.90;;;;;;5032057;28;20095;-82
2023/02/21 08:37:49;;;;;;;1.42;1.33;;;9.60;99.90;;;;;;5045577;28;20060;-81
2023/02/21 08:40:18;;;;;;;1.60;1.50;;;9.60;99.90;;;;;;5047862;28;20041;-81
2023/02/21 08:42:51;;;;;;;3.17;1.60;;;9.60;99.90;;;;;;5040028;28;20029;-82
2023/02/21 08:45:19;;;;;;;1.58;1.48;;;9.60;99.90;;;;;;5042991;28;20393;-82
2023/02/21 08:47:45;;;;;;;1.10;0.80;;;9.80;99.90;;;;;;5045432;28;20067;-81
2023/02/21 08:50:11;;;;;;;1.88;1.77;;;9.60;99.90;;;;;;5007180;28;20626;-82
2023/02/21 08:52:38;;;;;;;3.03;1.70;;;9.70;99.90;;;;;;5021203;28;20043;-82
2023/02/21 08:55:07;;;;;;;2.97;2.83;;;9.90;99.90;;;;;;5044177;28;20487;-81
2023/02/21 08:57:33;;;;;;;1.75;0.93;;;9.80;99.90;;;;;;5044024;28;20033;-82
2023/02/21 09:00:00;;;;;;;7.63;2.70;;;9.80;99.90;;;;;;5025301;28;20072;-82
2023/02/21 09:02:30;;;;;;;2.35;1.67;;;9.60;99.90;;;;;;5026524;28;20088;-81
2023/02/21 09:04:55;;;;;;;2.40;1.20;;;9.80;99.90;;;;;;5019077;28;20100;-83
2023/02/21 09:07:22;;;;;;;1.65;0.95;;;9.80;99.90;;;;;;5043273;28;20048;-81
2023/02/21 09:09:47;;;;;;;;;;;9.80;99.90;;;;;;5030559;28;20114;-81
2023/02/21 09:12:13;;;;;;;0.82;0.82;;;9.90;99.90;;;;;;5029189;28;20332;-82
2023/02/21 09:14:41;;;;;;;3.75;1.40;;;10.00;99.90;;;;;;5023161;28;20033;-81
2023/02/21 09:17:09;;;;;;;3.53;2.75;;;10.10;99.90;;;;;;5041048;28;20041;-81
2023/02/21 09:19:35;;;;;;;2.72;2.53;;;10.10;99.90;;;;;;5037736;28;20049;-81
2023/02/21 09:22:03;;;;;;;;;;;10.10;99.90;;;;;;5028517;28;20037;-82
2023/02/21 09:24:29;;;;;;;0.82;0.82;;;10.10;99.90;;;;;;5060390;28;19921;-82
2023/02/21 09:26:57;;;;;;;;;;;10.30;99.90;;;;;;5044821;28;20387;-82
2023/02/21 09:29:25;;;;;;;1.35;1.27;;;10.30;99.90;;;;;;5039210;28;19935;-82
2023/02/21 09:31:51;;;;;;;15.80;2.25;;;10.40;99.90;;;;;;5045141;28;20045;-82
2023/02/21 09:34:16;;;;;;;3.53;0.82;;;10.40;99.90;;;;;;5042281;28;20049;-82
2023/02/21 09:36:42;;;;;;;1.20;1.00;;;10.40;99.90;;;;;;5043804;28;20055;-82
2023/02/21 09:39:08;;;;;;;2.08;1.05;;;10.40;99.90;;;;;;5044003;28;20140;-82
2023/02/21 09:41:36;;;;;;;1.40;1.30;;;10.40;99.90;;;;;;5044607;28;20490;-82
2023/02/21 09:44:05;;;;;;;0.73;0.73;;;10.40;99.90;;;;;;5043568;28;20299;-82
2023/02/21 09:46:58;;;;;;;2.13;1.98;;;10.50;99.90;;;;;;5039285;28;20040;-82
2023/02/21 09:49:37;;;;;;;1.15;0.60;;;10.40;99.90;;;;;;5042583;28;20085;-81
2023/02/21 09:52:04;;;;;;;1.17;1.05;;;10.30;99.90;;;;;;5036758;28;20056;-81
2023/02/21 09:54:34;;;;;;;0.82;0.82;;;10.30;99.90;;;;;;5023495;28;20033;-80
2023/02/21 09:57:05;;;;;;;2.30;1.05;;;10.30;99.90;;;;;;5025718;28;20037;-82
2023/02/21 09:59:32;;;;;;;2.75;1.17;;;10.30;99.90;;;;;;5029636;28;20053;-81
2023/02/21 10:02:12;;;;;;;0.50;0.50;;;10.30;99.90;;;;;;5045630;28;20041;-81
2023/02/21 10:05:12;;;;;;;1.42;1.33;;;10.40;99.90;;;;;;5048042;28;20055;-82
2023/02/21 10:07:54;;;;;;;0.85;0.85;;;10.50;99.90;;;;;;5030099;28;20126;-82
2023/02/21 10:10:49;;;;;;;0.80;0.80;;;10.50;99.90;;;;;;5041766;28;20048;-82
2023/02/21 10:13:21;;;;;;;1.27;0.88;;;10.30;99.90;;;;;;5020445;28;20053;-82
2023/02/21 10:15:52;;;;;;;0.63;0.63;;;10.40;99.90;;;;;;5040153;28;20033;-82
2023/02/21 10:18:41;;;;;;;1.92;1.83;;;10.30;99.90;;;;;;5045591;28;20048;-81
2023/02/21 10:21:29;;;;;;;1.48;0.70;;;11.00;99.90;;;;;;5042794;28;20052;-82
2023/02/21 10:23:59;;;;;;;0.50;0.50;;;10.40;99.90;;;;;;5046296;28;20067;-82
2023/02/21 10:26:29;;;;;;;6.90;2.15;;;10.30;99.90;;;;;;5045652;28;20102;-82
2023/02/21 10:28:55;;;;;;;3.60;1.70;;;10.40;99.90;;;;;;5018798;28;20076;-81
2023/02/21 10:31:33;;;;;;;2.75;2.05;;;10.40;99.90;;;;;;5042771;28;20064;-81
2023/02/21 10:33:59;;;;;;;0.75;0.75;;;10.40;99.90;;;;;;5048292;28;20044;-82
2023/02/21 10:36:26;;;;;;;3.10;2.75;;;10.30;99.90;;;;;;5007959;28;20045;-81
2023/02/21 10:39:14;;;;;;;1.58;1.05;;;10.30;99.90;;;;;;5047077;28;20124;-82
2023/02/21 10:41:41;;;;;;;5.07;1.40;;;10.30;99.90;;;;;;5044413;28;20056;-82
2023/02/21 10:44:12;;;;;;;2.58;1.00;;;10.30;99.90;;;;;;5030569;28;20107;-82
2023/02/21 10:47:13;;;;;;;1.30;1.13;;;10.30;99.90;;;;;;5027990;28;20052;-82
2023/02/21 10:49:47;;;;;;;2.22;1.45;;;10.30;99.90;;;;;;5035183;28;20124;-82
2023/02/21 10:52:16;;;;;;;1.48;1.40;;;10.40;99.90;;;;;;5047295;28;20052;-82
2023/02/21 10:55:00;;;;;;;0.73;0.60;;;10.50;99.90;;;;;;5043610;28;20041;-82
2023/02/21 10:57:27;;;;;;;0.60;0.60;;;10.60;99.90;;;;;;5028856;28;20060;-83
2023/02/21 10:59:53;;;;;;;1.65;1.55;;;10.60;99.90;;;;;;5029012;28;20458;-82
2023/02/21 11:02:28;;;;;;;5.03;2.80;;;10.50;99.90;;;;;;5029881;28;20049;-82
2023/02/21 11:04:55;;;;;;;2.15;1.73;;;10.60;99.90;;;;;;5046887;28;20083;-81
2023/02/21 11:07:23;;;;;;;1.40;1.30;;;10.50;99.90;;;;;;5035499;28;20571;-83
2023/02/21 11:09:49;;;;;;;5.35;1.70;;;10.50;99.90;;;;;;5040557;28;20479;-81
2023/02/21 11:12:15;;;;;;;3.03;2.90;;;10.50;99.90;;;;;;5037607;28;20049;-82
2023/02/21 11:14:42;;;;;;;;;;;10.60;99.90;;;;;;5040568;28;20132;-81
2023/02/21 11:17:27;;;;;;;1.17;1.13;;;10.60;99.90;;;;;;5023549;28;19928;-82
2023/02/21 11:20:17;;;;;;;1.02;1.02;;;10.70;99.90;;;;;;5025503;28;20052;-81
2023/02/21 11:22:45;;;;;;;4.97;1.70;;;10.60;99.90;;;;;;5044666;28;20033;-82
2023/02/21 11:25:17;;;;;;;1.00;0.90;;;10.60;99.90;;;;;;5044580;28;20059;-82
2023/02/21 11:27:44;;;;;;;0.90;0.88;;;10.60;99.90;;;;;;5039878;28;20056;-82
2023/02/21 11:30:16;;;;;;;2.28;2.15;;;10.80;99.90;;;;;;5041004;28;20049;-82
2023/02/21 11:32:48;;;;;;;0.55;0.55;;;10.70;99.90;;;;;;5042758;28;20449;-82
2023/02/21 11:35:38;;;;;;;2.30;0.93;;;10.70;99.90;;;;;;5046988;28;20119;-82
2023/02/21 11:38:08;;;;;;;2.65;2.45;;;10.70;99.90;;;;;;5040499;28;20048;-81
2023/02/21 11:40:50;;;;;;;1.35;1.35;;;10.80;99.90;;;;;;5042175;28;20376;-82
2023/02/21 11:43:19;;;;;;;6.28;2.15;;;10.80;99.90;;;;;;5040737;28;20458;-83
2023/02/21 11:46:26;;;;;;;1.38;1.27;;;10.70;99.90;;;;;;5049706;28;20475;-81
2023/02/21 11:49:17;;;;;;;1.27;1.17;;;10.80;99.90;;;;;;5023982;28;20056;-82
2023/02/21 11:52:07;;;;;;;0.60;0.60;;;10.80;99.90;;;;;;5022333;28;20108;-83
2023/02/21 11:54:33;;;;;;;1.55;1.45;;;10.80;99.90;;;;;;5045788;28;20410;-82
2023/02/21 11:57:02;;;;;;;0.82;0.82;;;10.90;99.90;;;;;;5047248;28;20095;-82
2023/02/21 11:59:55;;;;;;;3.10;1.58;;;10.90;99.90;;;;;;5037570;28;20048;-82
2023/02/21 12:02:49;;;;;;;1.17;0.82;;;11.00;99.90;;;;;;5019923;28;20069;-82
2023/02/21 12:05:33;;;;;;;1.00;0.93;;;11.00;99.90;;;;;;5040241;28;20040;-82
2023/02/21 12:08:45;;;;;;;1.17;1.10;;;11.00;99.90;;;;;;5036011;28;20113;-81
2023/02/21 12:11:43;;;;;;;3.17;2.90;;;10.90;99.90;;;;;;5044111;28;20178;-82
2023/02/21 12:14:29;;;;;;;;;;;10.90;99.90;;;;;;5043626;28;20036;-82
2023/02/21 12:16:54;;;;;;;2.67;0.93;;;11.00;99.90;;;;;;5055825;28;19940;-83
2023/02/21 12:19:29;;;;;;;1.55;1.40;;;10.80;99.90;;;;;;5043593;28;20393;-82
2023/02/21 12:22:17;;;;;;;0.38;0.38;;;10.70;99.90;;;;;;5045356;28;20072;-82
2023/02/21 12:24:48;;;;;;;0.82;0.82;;;10.70;99.90;;;;;;5048330;28;20422;-83
2023/02/21 12:27:52;;;;;;;1.27;1.17;;;10.70;99.90;;;;;;5040798;28;20055;-82
2023/02/21 12:31:01;;;;;;;2.15;1.80;;;10.70;99.90;;;;;;5019552;28;20087;-82
2023/02/21 12:33:51;;;;;;;1.35;1.25;;;10.70;99.90;;;;;;5026400;28;20057;-83
2023/02/21 12:36:46;;;;;;;0.77;0.77;;;10.80;99.90;;;;;;5032868;28;20076;-82
2023/02/21 12:39:38;;;;;;;0.93;0.60;;;10.80;99.90;;;;;;5017930;28;20479;-81
2023/02/21 12:42:19;;;;;;;0.60;0.60;;;10.80;99.90;;;;;;5040499;28;20072;-83
2023/02/21 12:45:04;;;;;;;1.90;1.52;;;10.90;99.90;;;;;;5045055;28;20562;-83
2023/02/21 12:47:33;;;;;;;0.60;0.60;;;10.80;99.90;;;;;;5025699;28;20041;-83
2023/02/21 12:50:11;;;;;;;1.05;1.02;;;10.80;99.90;;;;;;5031599;28;20104;-83
2023/02/21 12:53:04;;;;;;;2.25;2.10;;;10.70;99.90;;;;;;5043313;28;20071;-83
2023/02/21 12:55:35;;;;;;;0.55;0.43;;;10.70;99.90;;;;;;5037290;28;20033;-83
2023/02/21 12:58:17;;;;;;;1.17;1.08;;;10.70;99.90;;;;;;5042962;28;20049;-83
2023/02/21 13:00:50;;;;;;;0.60;0.60;;;10.80;99.90;;;;;;5029907;28;20041;-82
2023/02/21 13:03:50;;;;;;;0.43;0.40;;;10.80;99.90;;;;;;5028950;28;20047;-82
2023/02/21 13:06:16;;;;;;;0.95;0.90;;;10.90;99.90;;;;;;5043029;28;20100;-82
2023/02/21 13:08:48;;;;;;;0.90;0.90;;;10.80;99.90;;;;;;5038960;28;20487;-84
2023/02/21 13:11:24;;;;;;;0.43;0.43;;;11.00;99.90;;;;;;5044689;28;20049;-82
2023/02/21 13:13:50;;;;;;;0.93;0.70;;;10.90;99.90;;;;;;5029551;28;20075;-82
2023/02/21 13:16:17;;;;;;;1.52;1.05;;;10.80;99.90;;;;;;5029471;28;20053;-82
2023/02/21 13:19:01;;;;;;;0.57;0.52;;;10.80;99.90;;;;;;5028756;28;20060;-82
2023/02/21 13:21:54;;;;;;;1.90;1.80;;;10.80;99.90;;;;;;5040295;28;20084;-83
2023/02/21 13:24:40;;;;;;;0.98;0.80;;;10.80;99.90;;;;;;5021024;28;20045;-82
2023/02/21 13:27:45;;;;;;;0.80;0.80;;;10.80;99.90;;;;;;5047750;28;20048;-83
2023/02/21 13:30:18;;;;;;;1.02;1.02;;;10.90;99.90;;;;;;5045694;28;20104;-82
2023/02/21 13:32:56;;;;;;;0.90;0.80;;;10.90;99.90;;;;;;5047721;28;20037;-83
2023/02/21 13:35:30;;;;;;;0.90;0.90;;;11.00;99.90;;;;;;5048161;28;20106;-82
2023/02/21 13:37:58;;;;;;;1.95;1.85;;;11.00;99.90;;;;;;5051940;28;20458;-82
2023/02/21 13:41:01;;;;;;;0.52;0.52;;;11.00;99.90;;;;;;5067484;28;20071;-83
2023/02/21 13:43:30;;;;;;;0.50;0.50;;;10.80;99.90;;;;;;5045445;28;20076;-82
2023/02/21 13:46:21;;;;;;;1.63;1.55;;;10.90;99.90;;;;;;5035946;28;20502;-82
2023/02/21 13:49:25;;;;;;;0.60;0.60;;;11.00;99.90;;;;;;5048836;28;20045;-83
2023/02/21 13:51:54;;;;;;;1.70;1.60;;;11.00;99.90;;;;;;5040509;28;20080;-82
2023/02/21 13:54:24;;;;;;;2.50;1.58;;;11.00;99.90;;;;;;5049270;28;20392;-81
2023/02/21 13:56:50;;;;;;;0.47;0.47;;;10.90;99.90;;;;;;5039858;28;20041;-82
2023/02/21 13:59:25;;;;;;;0.73;0.73;;;10.90;99.90;;;;;;5040530;28;20137;-81
2023/02/21 14:02:11;;;;;;;0.50;0.50;;;10.90;99.90;;;;;;5046888;28;20052;-81
2023/02/21 14:05:00;;;;;;;0.75;0.75;;;10.90;99.90;;;;;;5046765;28;21066;-82
2023/02/21 14:07:57;;;;;;;1.27;1.17;;;10.90;99.90;;;;;;5040789;28;20411;-82
2023/02/21 14:10:32;;;;;;;0.30;0.30;;;11.00;99.90;;;;;;5043653;28;20439;-82
2023/02/21 14:13:02;;;;;;;0.43;0.43;;;10.90;99.90;;;;;;5048033;28;20050;-83
2023/02/21 14:15:43;;;;;;;0.77;0.77;;;11.00;99.90;;;;;;5049437;28;20687;-80
2023/02/21 14:18:27;;;;;;;1.10;0.60;;;11.10;99.90;;;;;;5045269;28;20487;-83
2023/02/21 14:20:54;;;;;;;4.70;1.25;;;10.90;99.90;;;;;;5038403;28;20113;-82
2023/02/21 14:23:24;;;;;;;0.98;0.98;;;10.80;99.90;;;;;;5047484;28;20087;-81
2023/02/21 14:26:01;;;;;;;3.90;1.70;;;10.80;99.90;;;;;;5045029;28;20049;-82
2023/02/21 14:28:49;;;;;;;0.30;0.30;;;10.70;99.90;;;;;;5048694;28;20045;-81
2023/02/21 14:31:49;;;;;;;1.35;1.08;;;10.70;99.90;;;;;;5050342;28;20421;-81
2023/02/21 14:34:36;;;;;;;1.90;1.40;;;10.70;99.90;;;;;;5046762;28;20430;-81
2023/02/21 14:37:16;;;;;;;0.88;0.88;;;10.60;99.90;;;;;;5048543;28;20040;-82
2023/02/21 14:39:50;;;;;;;1.08;1.08;;;10.60;99.90;;;;;;5049110;28;20490;-82
2023/02/21 14:42:27;;;;;;;4.25;3.60;;;10.50;99.90;;;;;;5049291;28;20045;-81
2023/02/21 14:44:59;;;;;;;3.50;2.05;;;10.70;99.90;;;;;;5046949;28;20045;-83
2023/02/21 14:47:47;;;;;;;7.45;1.80;;;10.70;99.90;;;;;;5030804;28;20087;-81
2023/02/21 14:50:23;;;;;;;0.98;0.98;;;10.70;99.90;;;;;;5045505;28;20441;-82
2023/02/21 14:53:13;;;;;;;1.00;1.00;;;10.70;99.90;;;;;;5047065;28;20381;-81
2023/02/21 14:55:59;;;;;;;0.70;0.70;;;10.60;99.90;;;;;;5032193;28;20052;-82
2023/02/21 14:58:31;;;;;;;1.50;1.35;;;10.60;99.90;;;;;;5043202;28;20045;-81
2023/02/21 15:01:08;;;;;;;1.20;1.20;;;10.70;99.90;;;;;;5045741;28;20429;-83
2023/02/21 15:03:49;;;;;;;1.88;1.48;;;10.60;99.90;;;;;;5048895;28;20446;-82
2023/02/21 15:06:23;;;;;;;2.63;1.55;;;10.50;99.90;;;;;;5044632;28;20083;-82
2023/02/21 15:08:51;;;;;;;1.52;1.00;;;10.60;99.90;;;;;;5043572;28;20041;-81
2023/02/21 15:11:35;;;;;;;1.70;1.60;;;10.40;99.90;;;;;;5046495;28;20569;-81
2023/02/21 15:14:23;;;;;;;1.60;1.50;;;10.20;99.90;;;;;;5025622;28;20120;-81
2023/02/21 15:16:52;;;;;;;0.50;0.50;;;10.30;99.90;;;;;;5031722;28;20080;-82
2023/02/21 15:19:30;;;;;;;0.60;0.60;;;10.40;99.90;;;;;;5040985;28;20092;-82
2023/02/21 15:22:28;;;;;;;1.17;1.10;;;10.30;99.90;;;;;;5045254;28;20398;-83
2023/02/21 15:25:09;;;;;;;1.55;1.45;;;10.30;99.90;;;;;;5029396;28;20510;-83
2023/02/21 15:27:35;;;;;;;3.45;2.42;;;10.30;99.90;;;;;;5034154;28;20045;-81
2023/02/21 15:30:23;;;;;;;1.35;1.00;;;10.10;99.90;;;;;;5042880;28;20049;-82
2023/02/21 15:32:57;;;;;;;1.20;1.05;;;10.10;99.90;;;;;;5043329;28;20040;-82
2023/02/21 15:35:28;;;;;;;1.45;1.40;;;10.10;99.90;;;;;;5045764;28;20482;-81
2023/02/21 15:37:56;;;;;;;0.63;0.63;;;10.20;99.90;;;;;;5030280;28;20041;-82
2023/02/21 15:40:24;;;;;;;1.08;1.02;;;10.30;99.90;;;;;;5048836;28;20367;-82